Time;durP1;ratioP1;P1;durP2;ratioP2;P2;SDS_P1;SDS_P2;PMS_P1;PMS_P2;Temp;Humidity;BMP_temperature;BMP_pressure;BME280_temperature;BME280_humidity;BME280_pressure;Samples;Min_cycle;Max_cycle;Signal;HPM_P1;HPM_P2
2022/06/12 00:01:50;;;;;;;44.63;41.95;;;;;;;24.57;40.89;102176.09;5072612;28;20111;-69
2022/06/12 00:04:17;;;;;;;41.80;39.28;;;;;;;24.54;41.20;102181.38;5068527;28;20424;-69
2022/06/12 00:06:42;;;;;;;43.25;40.95;;;;;;;24.50;40.87;102178.41;5064769;28;20064;-68
2022/06/12 00:09:08;;;;;;;40.90;38.78;;;;;;;24.46;40.97;102182.91;5073194;28;20067;-69
2022/06/12 00:11:34;;;;;;;45.00;42.70;;;;;;;24.42;40.97;102179.09;5088288;28;20029;-69
2022/06/12 00:14:03;;;;;;;41.80;39.40;;;;;;;24.39;40.77;102177.75;5072168;28;20131;-70
2022/06/12 00:16:30;;;;;;;;;;;;;;;24.35;41.20;102179.47;5073299;28;20024;-70
2022/06/12 00:18:56;;;;;;;43.20;40.80;;;;;;;24.32;41.49;102176.50;5072573;28;19912;-69
2022/06/12 00:21:23;;;;;;;42.28;39.60;;;;;;;24.28;41.09;102178.22;5072284;28;20067;-68
2022/06/12 00:24:00;;;;;;;42.42;40.22;;;;;;;24.25;41.19;102182.38;5072280;28;20052;-69
2022/06/12 00:26:34;;;;;;;40.97;38.88;;;;;;;24.23;41.05;102175.53;5072731;28;20028;-70
2022/06/12 00:29:08;;;;;;;40.42;38.35;;;;;;;24.18;41.15;102187.47;5072229;28;20044;-69
2022/06/12 00:31:36;;;;;;;40.85;38.58;;;;;;;24.14;40.88;102183.66;5072617;28;20021;-69
2022/06/12 00:34:04;;;;;;;40.72;38.67;;;;;;;24.10;40.85;102174.34;5072251;28;20036;-70
2022/06/12 00:36:31;;;;;;;40.85;38.75;;;;;;;24.08;41.27;102171.88;5072085;28;20025;-70
2022/06/12 00:38:56;;;;;;;40.88;38.75;;;;;;;24.04;41.17;102173.63;5072535;28;20047;-69
2022/06/12 00:41:23;;;;;;;43.13;40.38;;;;;;;24.00;41.10;102169.81;5072037;28;20032;-69
2022/06/12 00:43:49;;;;;;;41.22;39.13;;;;;;;23.97;41.51;102171.22;5072698;28;20043;-69
2022/06/12 00:46:33;;;;;;;40.40;38.13;;;;;;;23.95;41.21;102164.34;5072648;28;20032;-69
2022/06/12 00:48:58;;;;;;;41.30;38.72;;;;;;;23.90;41.59;102164.44;5071871;28;20535;-69
2022/06/12 00:51:24;;;;;;;40.83;38.70;;;;;;;23.87;41.34;102167.81;5071933;28;20036;-69
2022/06/12 00:53:54;;;;;;;41.25;39.03;;;;;;;23.85;41.56;102164.50;5071533;28;20078;-69
2022/06/12 00:56:27;;;;;;;40.50;38.28;;;;;;;23.80;41.16;102157.13;5071667;28;20066;-69
2022/06/12 00:58:57;;;;;;;41.22;38.90;;;;;;;23.77;41.58;102168.75;5071896;28;20020;-69
2022/06/12 01:01:29;;;;;;;40.08;37.80;;;;;;;23.73;41.12;102156.66;5072081;28;20042;-69
2022/06/12 01:06:39;;;;;;;39.20;37.20;;;;;;;23.66;41.30;102167.22;5052818;28;20106;-69
2022/06/12 01:09:11;;;;;;;39.13;37.03;;;;;;;23.63;41.56;102173.34;5070747;28;20185;-69
2022/06/12 01:11:39;;;;;;;39.22;36.95;;;;;;;23.59;41.19;102169.53;5071695;28;20032;-69
2022/06/12 01:14:09;;;;;;;38.90;37.00;;;;;;;23.55;41.77;102172.06;5071259;28;20370;-69
2022/06/12 01:16:40;;;;;;;37.65;35.65;;;;;;;23.51;41.77;102174.59;5071823;28;20437;-69
2022/06/12 01:19:10;;;;;;;39.28;37.25;;;;;;;23.48;41.32;102163.31;5070620;28;20388;-69
2022/06/12 01:21:47;;;;;;;39.08;37.03;;;;;;;23.45;41.55;102172.19;5072047;28;20025;-69
2022/06/12 01:24:24;;;;;;;38.53;36.33;;;;;;;23.41;41.71;102162.84;5071883;28;20090;-69
2022/06/12 01:27:12;;;;;;;40.90;38.17;;;;;;;23.38;41.79;102166.22;5066810;28;20044;-68
2022/06/12 01:29:47;;;;;;;38.17;36.17;;;;;;;23.35;41.53;102161.28;5058304;28;20032;-69
2022/06/12 01:32:27;;;;;;;37.83;35.83;;;;;;;23.28;41.92;102153.38;5071558;28;20036;-69
2022/06/12 01:35:02;;;;;;;39.25;36.95;;;;;;;23.25;41.46;102145.69;5071362;28;20492;-69
2022/06/12 01:37:34;;;;;;;38.85;36.65;;;;;;;23.22;41.57;102151.78;5057400;28;20464;-69
2022/06/12 01:40:39;;;;;;;38.92;36.65;;;;;;;23.17;41.55;102144.41;5071448;28;20032;-70
2022/06/12 01:43:15;;;;;;;39.75;37.45;;;;;;;23.14;41.67;102158.78;5031462;28;20091;-69
2022/06/12 01:45:40;;;;;;;37.65;35.35;;;;;;;23.10;41.68;102164.03;5071702;28;20514;-70
2022/06/12 01:48:29;;;;;;;37.10;35.20;;;;;;;23.07;42.12;102159.13;5066524;28;20064;-69
2022/06/12 01:51:00;;;;;;;39.65;37.60;;;;;;;23.04;42.13;102161.66;5063588;28;20031;-69
2022/06/12 01:53:54;;;;;;;38.22;35.83;;;;;;;23.01;41.96;102152.03;5071581;28;20024;-70
2022/06/12 01:56:59;;;;;;;37.92;35.95;;;;;;;22.97;41.87;102147.38;5071009;28;20029;-69
2022/06/12 01:59:38;;;;;;;38.63;36.42;;;;;;;22.93;42.24;102157.31;5071427;28;20035;-71
2022/06/12 02:02:19;;;;;;;38.55;36.20;;;;;;;22.88;41.71;102161.78;5070765;28;20489;-70
2022/06/12 02:05:06;;;;;;;36.00;33.83;;;;;;;22.85;42.13;102156.84;5066882;28;20033;-70
2022/06/12 02:07:44;;;;;;;37.13;35.00;;;;;;;22.82;42.32;102162.94;5071039;28;20035;-69
2022/06/12 02:10:23;;;;;;;37.67;35.53;;;;;;;22.78;41.72;102159.16;5071157;28;20796;-69
2022/06/12 02:13:13;;;;;;;39.20;36.22;;;;;;;22.76;42.27;102161.38;5071224;28;20500;-69
2022/06/12 02:15:44;;;;;;;36.78;34.58;;;;;;;22.71;42.12;102155.91;5071032;28;20115;-69
2022/06/12 02:18:29;;;;;;;38.25;35.83;;;;;;;22.69;41.91;102158.13;5066444;28;20350;-69
2022/06/12 02:21:16;;;;;;;38.60;36.20;;;;;;;22.66;42.01;102166.97;5050135;28;20051;-69
2022/06/12 02:23:57;;;;;;;37.05;34.88;;;;;;;22.63;42.31;102162.06;5071202;28;20070;-69
2022/06/12 02:26:32;;;;;;;37.90;35.25;;;;;;;22.59;42.03;102159.03;5070611;28;20116;-69
2022/06/12 02:29:06;;;;;;;37.75;35.20;;;;;;;22.56;42.31;102165.13;5070442;28;20074;-69
2022/06/12 02:31:36;;;;;;;36.78;34.80;;;;;;;22.54;42.51;102161.84;5074022;28;20074;-69
2022/06/12 02:34:09;;;;;;;37.25;35.03;;;;;;;22.51;42.02;102147.84;5074044;28;20508;-69
2022/06/12 02:36:40;;;;;;;37.30;34.80;;;;;;;22.46;42.03;102149.53;5074842;28;20115;-69
2022/06/12 02:39:16;;;;;;;37.83;35.38;;;;;;;22.44;42.58;102143.47;5074390;28;20033;-71
2022/06/12 02:41:47;;;;;;;36.22;34.22;;;;;;;22.42;42.15;102142.13;5074687;28;20033;-69
2022/06/12 02:44:20;;;;;;;36.53;34.25;;;;;;;22.38;42.65;102141.88;5074032;28;20025;-69
2022/06/12 02:47:01;;;;;;;36.75;34.78;;;;;;;22.36;42.54;102149.59;5074627;28;20086;-70
2022/06/12 02:49:27;;;;;;;36.03;33.78;;;;;;;22.33;42.65;102139.19;5073888;28;20117;-70
2022/06/12 02:52:00;;;;;;;35.15;33.35;;;;;;;22.30;42.21;102139.75;5074113;28;20060;-70
2022/06/12 02:54:38;;;;;;;33.72;32.00;;;;;;;22.28;42.23;102146.66;5074652;28;20103;-70
2022/06/12 02:57:35;;;;;;;37.38;35.20;;;;;;;22.24;42.27;102149.16;5073631;28;20124;-70
2022/06/12 03:00:21;;;;;;;35.92;33.85;;;;;;;22.20;42.27;102153.56;5073572;28;20024;-69
2022/06/12 03:02:54;;;;;;;35.80;33.40;;;;;;;22.17;42.67;102143.13;5074341;28;20032;-69
2022/06/12 03:05:28;;;;;;;36.33;34.25;;;;;;;22.13;42.23;102155.81;5062556;28;20032;-70
2022/06/12 03:08:03;;;;;;;34.63;32.72;;;;;;;22.11;42.51;102153.34;5074338;28;20067;-70
2022/06/12 03:10:34;;;;;;;34.25;32.55;;;;;;;22.07;42.40;102149.50;5073945;28;20384;-71
2022/06/12 03:13:02;;;;;;;38.58;35.95;;;;;;;22.04;42.53;102141.84;5073102;28;20517;-70
2022/06/12 03:16:09;;;;;;;35.17;33.17;;;;;;;22.02;42.52;102149.56;5054315;28;20063;-70
2022/06/12 03:18:39;;;;;;;34.35;32.55;;;;;;;21.97;42.95;102147.69;5067780;28;20108;-70
2022/06/12 03:21:22;;;;;;;34.78;32.33;;;;;;;21.94;42.73;102141.91;5073689;28;20101;-69
2022/06/12 03:24:00;;;;;;;33.97;32.10;;;;;;;21.91;42.72;102148.00;5073951;28;20052;-70
2022/06/12 03:26:36;;;;;;;33.08;31.20;;;;;;;21.88;43.08;102151.31;5074104;28;20031;-70
2022/06/12 03:29:13;;;;;;;33.65;31.80;;;;;;;21.86;42.92;102159.84;5073031;28;20569;-69
2022/06/12 03:31:55;;;;;;;33.93;31.93;;;;;;;21.82;42.89;102158.75;5073495;28;20056;-70
2022/06/12 03:34:41;;;;;;;33.30;31.40;;;;;;;21.79;42.74;102148.34;5072981;28;20103;-70
2022/06/12 03:37:13;;;;;;;34.33;32.15;;;;;;;21.75;42.50;102148.09;5072638;28;20085;-69
2022/06/12 03:39:51;;;;;;;34.33;32.33;;;;;;;21.73;43.01;102150.28;5073649;28;20119;-70
2022/06/12 03:42:35;;;;;;;34.88;32.42;;;;;;;21.71;42.95;102157.19;5073356;28;20469;-70
2022/06/12 03:45:11;;;;;;;33.38;31.02;;;;;;;21.67;42.64;102156.94;5062210;28;20032;-69
2022/06/12 03:47:48;;;;;;;35.10;32.92;;;;;;;21.65;42.52;102150.09;5073680;28;20120;-70
2022/06/12 03:50:26;;;;;;;32.78;30.92;;;;;;;21.62;42.87;102159.72;5073213;28;20028;-70
2022/06/12 03:52:55;;;;;;;33.30;31.35;;;;;;;21.59;42.70;102166.59;5073103;28;20086;-70
2022/06/12 03:58:24;;;;;;;33.17;31.27;;;;;;;21.52;42.73;102146.84;5073303;28;20124;-70
2022/06/12 04:00:51;;;;;;;32.70;30.90;;;;;;;21.50;42.86;102154.53;5072923;28;20365;-70
2022/06/12 04:03:25;;;;;;;34.45;32.30;;;;;;;21.47;43.12;102160.63;5068086;28;20617;-70
2022/06/12 04:05:59;;;;;;;33.90;31.92;;;;;;;21.45;42.96;102159.25;5061743;28;20103;-70
2022/06/12 04:08:33;;;;;;;33.58;31.52;;;;;;;21.43;42.97;102166.94;5072488;28;20024;-70
2022/06/12 04:10:59;;;;;;;33.33;31.40;;;;;;;21.40;43.09;102165.59;5072883;28;20036;-70
2022/06/12 04:13:25;;;;;;;33.40;31.52;;;;;;;21.38;42.93;102165.84;5073064;28;20039;-70
2022/06/12 04:16:16;;;;;;;33.75;31.73;;;;;;;21.36;43.01;102158.97;5072927;28;20239;-70
2022/06/12 04:18:42;;;;;;;32.78;30.83;;;;;;;21.32;43.28;102163.41;5061426;28;20033;-70
2022/06/12 04:21:14;;;;;;;34.05;31.58;;;;;;;21.31;43.35;102161.72;5072342;28;20039;-70
2022/06/12 04:24:06;;;;;;;33.35;31.00;;;;;;;21.29;43.04;102161.19;5072458;28;20136;-69
2022/06/12 04:26:43;;;;;;;31.60;29.90;;;;;;;21.26;42.92;102165.31;5061156;28;20476;-70
2022/06/12 04:29:11;;;;;;;34.47;32.55;;;;;;;21.23;42.90;102171.38;5072335;28;20388;-69
2022/06/12 04:31:38;;;;;;;31.23;29.30;;;;;;;21.20;43.42;102174.69;5072780;28;20537;-70
2022/06/12 04:34:18;;;;;;;32.85;30.75;;;;;;;21.19;43.12;102175.78;5071752;28;20473;-69
2022/06/12 04:36:48;;;;;;;30.95;29.33;;;;;;;21.16;42.60;102184.59;5072515;28;20036;-70
2022/06/12 04:39:16;;;;;;;35.22;32.78;;;;;;;21.13;42.82;102176.91;5071759;28;20439;-70
2022/06/12 04:41:43;;;;;;;32.67;30.85;;;;;;;21.11;43.21;102174.44;5072671;28;20074;-70
2022/06/12 04:44:09;;;;;;;33.30;31.45;;;;;;;21.10;43.20;102178.28;5071875;28;20043;-70
2022/06/12 04:46:37;;;;;;;32.88;30.48;;;;;;;21.07;43.05;102175.28;5072348;28;20415;-70
2022/06/12 04:49:03;;;;;;;30.95;29.20;;;;;;;21.06;43.12;102181.88;5072260;28;20035;-70
2022/06/12 04:51:30;;;;;;;31.52;29.92;;;;;;;21.04;43.41;102181.31;5067355;28;20025;-70
2022/06/12 04:53:56;;;;;;;32.78;30.98;;;;;;;21.02;42.97;102181.63;5066100;28;20040;-70
2022/06/12 04:56:24;;;;;;;33.25;31.42;;;;;;;21.01;42.95;102168.16;5071261;28;20038;-69
2022/06/12 04:58:51;;;;;;;31.30;29.40;;;;;;;20.98;43.21;102175.03;5071832;28;20032;-70
2022/06/12 05:01:16;;;;;;;33.35;31.30;;;;;;;20.96;43.04;102177.22;5071744;28;20058;-71
2022/06/12 05:03:42;;;;;;;31.15;29.23;;;;;;;20.94;43.53;102171.19;5072177;28;20423;-70
2022/06/12 05:06:10;;;;;;;32.70;30.65;;;;;;;20.93;43.40;102169.53;5071727;28;20434;-69
2022/06/12 05:08:35;;;;;;;31.43;29.70;;;;;;;20.91;43.19;102169.00;5072114;28;20119;-70
2022/06/12 05:11:01;;;;;;;32.25;30.33;;;;;;;20.90;43.23;102170.91;5071166;28;20318;-69
2022/06/12 05:13:27;;;;;;;32.95;31.02;;;;;;;20.90;43.50;102181.09;5071541;28;20039;-70
2022/06/12 05:15:52;;;;;;;32.25;30.25;;;;;;;20.91;43.57;102174.47;5071861;28;20419;-70
2022/06/12 05:18:19;;;;;;;34.90;32.22;;;;;;;20.90;43.26;102170.09;5067027;28;20029;-70
2022/06/12 05:20:45;;;;;;;31.70;29.60;;;;;;;20.90;43.60;102172.84;5065485;28;20366;-70
2022/06/12 05:23:11;;;;;;;34.38;31.63;;;;;;;20.90;43.38;102173.66;5071313;28;20059;-69
2022/06/12 05:25:37;;;;;;;30.65;28.85;;;;;;;20.90;43.36;102181.09;5071547;28;20043;-70
2022/06/12 05:28:04;;;;;;;33.85;31.63;;;;;;;20.89;43.36;102180.28;5071541;28;20113;-70
2022/06/12 05:30:33;;;;;;;32.00;29.98;;;;;;;20.90;43.83;102170.91;5067998;28;20385;-69
2022/06/12 05:32:59;;;;;;;32.90;30.33;;;;;;;20.91;43.33;102171.75;5071823;28;20025;-70
2022/06/12 05:35:27;;;;;;;33.17;31.38;;;;;;;20.92;43.84;102176.16;5070686;28;20032;-70
2022/06/12 05:37:53;;;;;;;31.13;29.23;;;;;;;20.92;43.52;102184.38;5071705;28;20041;-70
2022/06/12 05:40:25;;;;;;;32.85;30.90;;;;;;;20.92;43.51;102171.47;5071136;28;20383;-69
2022/06/12 05:42:52;;;;;;;31.40;29.67;;;;;;;20.92;43.93;102174.22;5071993;28;20047;-70
2022/06/12 05:45:24;;;;;;;32.83;30.75;;;;;;;20.94;43.56;102179.41;5071272;28;20028;-69
2022/06/12 05:47:52;;;;;;;32.25;29.92;;;;;;;20.94;43.92;102179.41;5071380;28;20024;-69
2022/06/12 05:50:22;;;;;;;34.10;32.20;;;;;;;20.96;43.36;102182.72;5071253;28;20029;-70
2022/06/12 05:52:47;;;;;;;32.83;30.73;;;;;;;20.96;43.63;102178.06;5071036;28;20371;-70
2022/06/12 05:55:13;;;;;;;31.88;29.88;;;;;;;20.98;43.92;102175.03;5071018;28;20067;-70
2022/06/12 05:57:39;;;;;;;32.03;30.02;;;;;;;20.98;43.66;102179.69;5071632;28;20545;-70
2022/06/12 06:00:08;;;;;;;32.78;30.85;;;;;;;21.00;43.78;102177.50;5070818;28;20044;-70
2022/06/12 06:02:34;;;;;;;32.42;30.40;;;;;;;21.02;43.77;102178.06;5067402;28;20031;-70
2022/06/12 06:05:01;;;;;;;33.28;31.02;;;;;;;21.02;44.11;102176.13;5073705;28;20028;-70
2022/06/12 06:07:27;;;;;;;33.47;31.20;;;;;;;21.04;44.09;102182.16;5075107;28;20029;-70
2022/06/12 06:09:52;;;;;;;30.75;29.05;;;;;;;21.05;43.89;102186.56;5075042;28;20105;-70
2022/06/12 06:12:18;;;;;;;33.30;31.33;;;;;;;21.05;44.01;102189.31;5075049;28;20032;-70
2022/06/12 06:14:43;;;;;;;32.45;30.38;;;;;;;21.07;43.94;102184.34;5070656;28;20595;-70
2022/06/12 06:17:09;;;;;;;32.85;30.83;;;;;;;21.09;44.17;102195.91;5073379;28;20029;-70
2022/06/12 06:19:34;;;;;;;31.73;30.02;;;;;;;21.12;44.10;102197.25;5074496;28;20029;-70
2022/06/12 06:22:00;;;;;;;31.92;29.80;;;;;;;21.14;44.22;102195.03;5074997;28;20112;-70
2022/06/12 06:24:25;;;;;;;33.30;31.15;;;;;;;21.15;44.06;102196.69;5074268;28;20049;-70
2022/06/12 06:26:50;;;;;;;31.15;29.45;;;;;;;21.18;44.14;102202.44;5075090;28;20157;-70
2022/06/12 06:29:16;;;;;;;32.10;30.25;;;;;;;21.19;44.39;102203.25;5074585;28;20056;-70
2022/06/12 06:31:41;;;;;;;32.28;30.23;;;;;;;21.21;44.39;102206.56;5070365;28;20037;-70
2022/06/12 06:34:07;;;;;;;34.83;32.15;;;;;;;21.23;44.50;102212.59;5061098;28;20043;-70
2022/06/12 06:36:32;;;;;;;34.17;31.67;;;;;;;21.25;44.67;102215.09;5056221;28;20036;-70
2022/06/12 06:38:59;;;;;;;32.25;30.25;;;;;;;21.26;44.33;102209.28;5074889;28;20033;-70
2022/06/12 06:41:25;;;;;;;33.58;31.52;;;;;;;21.29;44.47;102207.91;5074371;28;20567;-70
2022/06/12 06:46:35;;;;;;;33.53;31.50;;;;;;;21.34;44.57;102211.50;5073879;28;20439;-70
2022/06/12 06:49:02;;;;;;;32.40;30.25;;;;;;;21.36;45.10;102208.44;5074461;28;20033;-70
2022/06/12 06:51:27;;;;;;;34.13;31.90;;;;;;;21.37;45.07;102205.44;5073701;28;20040;-70
2022/06/12 06:53:52;;;;;;;33.92;31.10;;;;;;;21.39;45.45;102208.75;5074495;28;20037;-71
2022/06/12 06:56:19;;;;;;;34.17;31.88;;;;;;;21.42;45.16;102212.88;5074122;28;20078;-70
2022/06/12 06:58:44;;;;;;;32.72;30.83;;;;;;;21.43;45.15;102217.25;5070091;28;20045;-70
2022/06/12 07:01:10;;;;;;;33.05;31.00;;;;;;;21.45;45.14;102217.81;5065057;28;20037;-70
2022/06/12 07:03:35;;;;;;;34.72;32.22;;;;;;;21.49;45.13;102220.78;5089906;28;20120;-70
2022/06/12 07:06:02;;;;;;;32.67;30.98;;;;;;;21.50;45.37;102226.03;5074128;28;20102;-70
2022/06/12 07:08:28;;;;;;;32.00;30.08;;;;;;;21.53;45.13;102228.22;5073769;28;20123;-71
2022/06/12 07:10:55;;;;;;;35.72;33.22;;;;;;;21.57;45.04;102221.06;5074358;28;20028;-70
2022/06/12 07:13:21;;;;;;;35.22;32.45;;;;;;;21.59;45.19;102220.75;5073749;28;20064;-70
2022/06/12 07:15:47;;;;;;;34.25;32.25;;;;;;;21.62;45.79;102220.22;5072824;28;20044;-70
2022/06/12 07:18:13;;;;;;;33.97;32.03;;;;;;;21.65;45.29;102222.41;5069464;28;20033;-70
2022/06/12 07:20:45;;;;;;;33.92;31.83;;;;;;;21.68;45.49;102224.56;5063964;28;20032;-70
2022/06/12 07:23:11;;;;;;;35.38;32.70;;;;;;;21.73;45.30;102223.75;5073652;28;20045;-70
2022/06/12 07:25:40;;;;;;;36.40;33.70;;;;;;;21.76;45.28;102223.97;5073692;28;20051;-70
2022/06/12 07:28:06;;;;;;;34.33;32.40;;;;;;;21.80;45.48;102216.81;5073484;28;20538;-71
2022/06/12 07:30:31;;;;;;;38.08;35.42;;;;;;;21.85;45.78;102231.63;5068844;28;20045;-70
2022/06/12 07:32:57;;;;;;;35.83;33.10;;;;;;;21.88;46.04;102222.84;5066054;28;20086;-70
2022/06/12 07:35:22;;;;;;;36.35;34.22;;;;;;;21.91;45.50;102227.78;5073246;28;20072;-70
2022/06/12 07:37:48;;;;;;;35.88;33.38;;;;;;;21.95;45.66;102223.34;5069062;28;20037;-70
2022/06/12 07:40:18;;;;;;;34.75;32.33;;;;;;;21.97;45.92;102224.72;5069058;28;20036;-71
2022/06/12 07:42:44;;;;;;;35.17;33.15;;;;;;;22.01;46.02;102227.72;5073188;28;20032;-71
2022/06/12 07:45:10;;;;;;;34.95;33.08;;;;;;;22.06;45.73;102229.63;5073528;28;20453;-71
2022/06/12 07:47:36;;;;;;;36.78;34.33;;;;;;;22.09;45.69;102232.63;5073213;28;20029;-70
2022/06/12 07:50:02;;;;;;;36.05;33.55;;;;;;;22.14;46.02;102234.50;5089036;28;20051;-70
2022/06/12 07:52:28;;;;;;;37.70;35.38;;;;;;;22.17;45.63;102228.44;5073015;28;20041;-70
2022/06/12 07:54:55;;;;;;;35.40;33.25;;;;;;;22.21;45.63;102229.56;5068269;28;20048;-70
2022/06/12 07:57:20;;;;;;;34.90;32.90;;;;;;;22.24;46.00;102226.22;5066898;28;20036;-70
2022/06/12 07:59:46;;;;;;;35.05;33.17;;;;;;;22.29;45.65;102226.19;5072529;28;20107;-70
2022/06/12 08:02:11;;;;;;;36.38;34.03;;;;;;;22.32;45.56;102222.84;5073568;28;20028;-71
2022/06/12 08:04:37;;;;;;;36.63;34.53;;;;;;;22.36;46.06;102214.88;5072280;28;20476;-70
2022/06/12 08:07:03;;;;;;;36.65;34.17;;;;;;;22.40;45.99;102213.16;5088816;28;20037;-70
2022/06/12 08:09:28;;;;;;;38.65;36.10;;;;;;;22.44;46.02;102211.50;5072482;28;20043;-71
2022/06/12 08:11:54;;;;;;;36.53;34.40;;;;;;;22.49;46.08;102219.72;5073497;28;20060;-71
2022/06/12 08:14:22;;;;;;;40.05;36.55;;;;;;;22.54;45.91;102222.41;5072411;28;20468;-71
2022/06/12 08:16:47;;;;;;;36.83;34.63;;;;;;;22.58;45.95;102217.16;5067319;28;20067;-71
2022/06/12 08:22:01;;;;;;;36.38;34.50;;;;;;;22.66;46.11;102214.63;5072851;28;20051;-71
2022/06/12 08:24:26;;;;;;;38.17;35.38;;;;;;;22.71;45.68;102211.00;5072102;28;20516;-70
2022/06/12 08:26:52;;;;;;;38.70;36.38;;;;;;;22.76;46.08;102221.97;5071490;28;20128;-71
2022/06/12 08:29:17;;;;;;;39.30;36.90;;;;;;;22.80;45.86;102213.94;5072396;28;20067;-71
2022/06/12 08:31:49;;;;;;;38.85;36.67;;;;;;;22.85;45.77;102211.94;5072374;28;20032;-71
2022/06/12 08:34:22;;;;;;;38.40;36.10;;;;;;;22.90;45.84;102209.13;5072672;28;20054;-71
2022/06/12 08:36:53;;;;;;;36.00;34.08;;;;;;;22.95;45.92;102215.72;5072396;28;20036;-71
2022/06/12 08:39:19;;;;;;;38.70;36.00;;;;;;;22.99;45.57;102206.63;5071803;28;20552;-71
2022/06/12 08:41:55;;;;;;;39.22;36.65;;;;;;;23.05;45.52;102212.88;5072256;28;20112;-70
2022/06/12 08:44:55;;;;;;;38.22;35.65;;;;;;;23.09;46.18;102205.69;5072546;28;20038;-71
2022/06/12 08:47:33;;;;;;;38.10;35.90;;;;;;;23.16;45.96;102208.09;5058851;28;20044;-71
2022/06/12 08:50:01;;;;;;;;;;;;;;;23.19;45.71;102208.34;5072570;28;20028;-71
2022/06/12 08:52:36;;;;;;;38.17;35.20;;;;;;;23.24;45.50;102208.28;5071862;28;19908;-69
2022/06/12 08:55:13;;;;;;;38.70;36.03;;;;;;;23.32;45.64;102198.53;5071835;28;20161;-71
2022/06/12 08:57:59;;;;;;;38.13;35.60;;;;;;;23.37;45.58;102194.91;5071552;28;20040;-70
2022/06/12 09:00:31;;;;;;;38.97;36.58;;;;;;;23.40;45.11;102197.88;5071572;28;20381;-71
2022/06/12 09:02:56;;;;;;;37.30;35.25;;;;;;;23.46;45.46;102187.59;5072486;28;20035;-71
2022/06/12 09:05:29;;;;;;;39.47;36.95;;;;;;;23.52;45.70;102192.78;5071667;28;20028;-70
2022/06/12 09:08:15;;;;;;;38.00;35.90;;;;;;;23.59;45.34;102183.34;5072098;28;20040;-70
2022/06/12 09:11:01;;;;;;;40.53;38.10;;;;;;;23.64;45.35;102189.59;5057372;28;20029;-70
2022/06/12 09:13:29;;;;;;;41.10;38.35;;;;;;;23.69;45.16;102186.78;5086587;28;20116;-70
2022/06/12 09:16:05;;;;;;;40.70;38.15;;;;;;;23.75;45.10;102184.78;5071826;28;20483;-70
2022/06/12 09:18:34;;;;;;;40.80;38.17;;;;;;;23.82;45.00;102192.72;5071866;28;20029;-69
2022/06/12 09:21:05;;;;;;;38.42;36.20;;;;;;;23.87;45.33;102185.16;5072015;28;20034;-70
2022/06/12 09:23:57;;;;;;;41.17;38.65;;;;;;;23.93;45.03;102180.38;5058190;28;20508;-69
2022/06/12 09:26:49;;;;;;;38.75;36.55;;;;;;;23.98;44.99;102188.59;5071583;28;20502;-70
2022/06/12 09:29:44;;;;;;;40.85;38.30;;;;;;;24.05;44.65;102183.53;5071174;28;20085;-70
2022/06/12 09:32:19;;;;;;;38.67;36.78;;;;;;;24.10;44.66;102188.16;5060760;28;20404;-70
2022/06/12 09:34:48;;;;;;;40.63;38.33;;;;;;;24.15;44.98;102183.38;5071431;28;20024;-70
2022/06/12 09:40:24;;;;;;;41.35;38.65;;;;;;;24.28;43.92;102186.50;5071339;28;20048;-70
2022/06/12 09:43:07;;;;;;;42.78;40.17;;;;;;;24.33;43.89;102186.41;5070947;28;20384;-70
2022/06/12 09:45:40;;;;;;;40.53;38.03;;;;;;;24.37;44.06;102192.97;5071374;28;20051;-70
2022/06/12 09:48:32;;;;;;;41.50;39.17;;;;;;;24.43;44.27;102199.22;5071624;28;20039;-71
2022/06/12 09:51:21;;;;;;;42.40;39.90;;;;;;;24.49;43.85;102195.28;5071765;28;20082;-71
2022/06/12 09:54:07;;;;;;;42.17;39.88;;;;;;;24.54;44.16;102195.19;5051476;28;20071;-70
2022/06/12 09:56:53;;;;;;;43.08;40.78;;;;;;;24.60;43.73;102197.56;5056887;28;20557;-71
2022/06/12 09:59:36;;;;;;;42.25;39.72;;;;;;;24.67;43.85;102191.66;5071484;28;20028;-71
2022/06/12 10:02:14;;;;;;;42.92;40.60;;;;;;;24.72;43.79;102191.59;5071020;28;20513;-70
2022/06/12 10:04:49;;;;;;;43.15;40.83;;;;;;;24.77;44.32;102193.41;5069785;28;20020;-70
2022/06/12 10:07:22;;;;;;;43.65;41.30;;;;;;;24.82;44.08;102180.34;5071372;28;20029;-70
2022/06/12 10:09:56;;;;;;;43.55;41.08;;;;;;;24.88;43.73;102191.31;5070799;28;20361;-70
2022/06/12 10:12:27;;;;;;;43.97;41.47;;;;;;;24.94;43.69;102192.84;5070828;28;20028;-70
2022/06/12 10:14:58;;;;;;;44.03;41.50;;;;;;;24.98;43.53;102180.06;5071012;28;20029;-74
2022/06/12 10:17:38;;;;;;;42.22;39.83;;;;;;;25.04;43.29;102178.81;5071485;28;20024;-69
2022/06/12 10:20:22;;;;;;;42.15;39.50;;;;;;;25.08;43.36;102179.03;5051770;28;20116;-69
2022/06/12 10:22:51;;;;;;;45.40;42.80;;;;;;;25.13;42.80;102184.47;5053607;28;20032;-70
2022/06/12 10:25:31;;;;;;;45.58;42.60;;;;;;;25.18;42.40;102184.41;5071002;28;20032;-69
2022/06/12 10:28:35;;;;;;;44.17;41.97;;;;;;;25.22;42.89;102174.34;5054973;28;20432;-70
2022/06/12 10:31:20;;;;;;;44.25;41.75;;;;;;;25.27;42.92;102174.22;5070464;28;20062;-70
2022/06/12 10:34:14;;;;;;;48.40;45.70;;;;;;;25.33;43.17;102166.69;5070283;28;20032;-69
2022/06/12 10:36:40;;;;;;;43.42;41.22;;;;;;;25.36;43.34;102171.59;5070660;28;20070;-70
2022/06/12 10:39:07;;;;;;;43.33;41.03;;;;;;;25.41;42.88;102169.53;5071496;28;20396;-70
2022/06/12 10:41:33;;;;;;;44.92;42.50;;;;;;;25.46;42.90;102163.06;5070561;28;20392;-70
2022/06/12 10:43:58;;;;;;;45.17;42.65;;;;;;;25.51;42.84;102164.91;5070705;28;20037;-69
2022/06/12 10:46:30;;;;;;;44.53;42.33;;;;;;;25.57;42.86;102163.66;5071125;28;20063;-70
2022/06/12 10:48:58;;;;;;;49.25;45.88;;;;;;;25.61;42.61;102168.25;5070652;28;20055;-70
2022/06/12 10:51:37;;;;;;;45.50;43.17;;;;;;;25.67;42.90;102167.00;5071203;28;20111;-70
2022/06/12 10:54:19;;;;;;;45.05;42.65;;;;;;;25.72;42.80;102168.03;5074136;28;20043;-71
2022/06/12 10:56:58;;;;;;;47.67;44.92;;;;;;;25.77;42.54;102160.44;5074019;28;20035;-71
2022/06/12 10:59:41;;;;;;;46.88;43.95;;;;;;;25.84;42.46;102162.78;5054695;28;20025;-71
2022/06/12 11:02:06;;;;;;;46.45;43.95;;;;;;;25.88;42.12;102164.66;5067334;28;20025;-71
2022/06/12 11:04:50;;;;;;;49.33;46.67;;;;;;;25.96;41.70;102159.50;5074187;28;20033;-71
2022/06/12 11:07:30;;;;;;;48.85;45.83;;;;;;;26.00;42.18;102157.72;5074192;28;20036;-71
2022/06/12 11:10:01;;;;;;;49.05;46.33;;;;;;;26.03;41.81;102157.94;5074058;28;20039;-72
2022/06/12 11:12:42;;;;;;;48.08;45.45;;;;;;;26.09;41.40;102158.63;5074161;28;20029;-71
2022/06/12 11:15:07;;;;;;;50.35;47.40;;;;;;;26.14;41.50;102158.50;5074121;28;20474;-71
2022/06/12 11:18:03;;;;;;;48.78;46.30;;;;;;;26.20;42.29;102160.00;5074101;28;20058;-71
2022/06/12 11:20:54;;;;;;;48.75;45.95;;;;;;;26.26;41.98;102155.16;5073419;28;20111;-71
2022/06/12 11:23:19;;;;;;;48.63;45.85;;;;;;;26.30;41.88;102156.16;5073424;28;20076;-71
2022/06/12 11:25:51;;;;;;;48.03;45.55;;;;;;;26.34;41.92;102154.41;5071644;28;20068;-71
2022/06/12 11:29:01;;;;;;;49.58;47.03;;;;;;;26.40;41.77;102155.91;5073935;28;20025;-70
2022/06/12 11:31:51;;;;;;;47.17;44.28;;;;;;;26.43;41.80;102152.50;5011694;28;20088;-71
2022/06/12 11:34:42;;;;;;;47.78;45.20;;;;;;;26.47;41.82;102149.91;5011613;28;20413;-70
2022/06/12 11:37:18;;;;;;;45.05;42.75;;;;;;;26.51;41.78;102159.22;5053037;28;20073;-72
2022/06/12 11:40:07;;;;;;;48.38;45.78;;;;;;;26.55;41.33;102155.53;5073286;28;20029;-69
2022/06/12 11:42:47;;;;;;;;;;;;;;;26.58;41.36;102154.06;5074135;28;20029;-70
2022/06/12 11:45:33;;;;;;;46.20;43.70;;;;;;;26.62;41.27;102148.72;5073399;28;19919;-71
2022/06/12 11:48:17;;;;;;;49.60;46.92;;;;;;;26.66;41.35;102144.16;5073003;28;20083;-71
2022/06/12 11:50:52;;;;;;;49.70;46.70;;;;;;;26.70;40.89;102131.31;5058072;28;20033;-79